createdAt,value
2023-04-05T00:00:39.585Z,87.99
2023-04-05T00:01:39.071Z,87.58
2023-04-05T00:02:39.094Z,87.68
2023-04-05T00:03:39.077Z,87.89
2023-04-05T00:04:39.201Z,87.30
2023-04-05T00:05:38.987Z,87.68
2023-04-05T00:06:38.969Z,87.79
2023-04-05T00:07:38.971Z,87.68
2023-04-05T00:08:38.942Z,87.79
2023-04-05T00:09:38.952Z,87.41
2023-04-05T00:10:39.081Z,87.72
2023-04-05T00:11:38.962Z,87.79
2023-04-05T00:12:38.901Z,87.05
2023-04-05T00:13:38.911Z,87.05
2023-04-05T00:14:38.893Z,87.05
2023-04-05T00:15:38.895Z,87.58
2023-04-05T00:16:38.895Z,87.37
2023-04-05T00:17:38.880Z,87.16
2023-04-05T00:18:38.932Z,87.05
2023-04-05T00:19:38.825Z,87.05
2023-04-05T00:20:39.205Z,86.85
2023-04-05T00:21:38.799Z,87.37
2023-04-05T00:22:38.800Z,87.89
2023-04-05T00:23:38.919Z,87.68
2023-04-05T00:24:38.788Z,87.58
2023-04-05T00:25:38.775Z,87.89
2023-04-05T00:26:38.742Z,87.68
2023-04-05T00:27:38.726Z,86.95
2023-04-05T00:28:38.752Z,87.05
2023-04-05T00:29:38.707Z,87.58
2023-04-05T00:30:39.106Z,86.95
2023-04-05T00:31:38.720Z,87.26
2023-04-05T00:32:38.688Z,87.37
2023-04-05T00:33:38.663Z,87.89
2023-04-05T00:34:38.697Z,87.47
2023-04-05T00:35:38.651Z,86.53
2023-04-05T00:36:38.628Z,86.00
2023-04-05T00:37:38.638Z,86.00
2023-04-05T00:38:38.633Z,85.69
2023-04-05T00:39:38.594Z,86.63
2023-04-05T00:40:38.668Z,87.47
2023-04-05T00:41:38.573Z,87.16
2023-04-05T00:42:38.584Z,86.74
2023-04-05T00:43:38.556Z,87.05
2023-04-05T00:44:38.537Z,86.74
2023-04-05T00:45:38.564Z,87.05
2023-04-05T00:46:38.546Z,86.95
2023-04-05T00:47:38.546Z,87.79
2023-04-05T00:48:38.501Z,87.99
2023-04-05T00:49:38.514Z,87.47
2023-04-05T00:50:38.519Z,87.79
2023-04-05T00:51:38.473Z,87.99
2023-04-05T00:52:38.465Z,88.10
2023-04-05T00:53:38.451Z,87.51
2023-04-05T00:54:38.455Z,86.95
2023-04-05T00:55:38.497Z,86.63
2023-04-05T00:56:38.404Z,87.09
2023-04-05T00:57:38.396Z,87.05
2023-04-05T00:58:38.395Z,86.63
2023-04-05T00:59:38.400Z,86.85
2023-04-05T01:00:38.508Z,87.16
2023-04-05T01:01:38.416Z,86.85
2023-04-05T01:02:38.366Z,87.47
2023-04-05T01:03:38.348Z,87.37
2023-04-05T01:04:38.344Z,87.58
2023-04-05T01:05:38.316Z,87.68
2023-04-05T01:06:38.309Z,86.95
2023-04-05T01:07:38.277Z,87.26
2023-04-05T01:08:38.288Z,87.05
2023-04-05T01:09:38.272Z,86.85
2023-04-05T01:10:38.275Z,86.85
2023-04-05T01:11:38.246Z,86.74
2023-04-05T01:12:38.233Z,87.26
2023-04-05T01:13:38.267Z,87.33
2023-04-05T01:14:38.218Z,87.12
2023-04-05T01:15:38.215Z,86.60
2023-04-05T01:16:38.196Z,86.49
2023-04-05T01:17:38.238Z,85.55
2023-04-05T01:18:38.184Z,85.80
2023-04-05T01:19:38.142Z,85.13
2023-04-05T01:20:38.162Z,84.50
2023-04-05T01:21:39.195Z,84.96
2023-04-05T01:22:38.163Z,84.96
2023-04-05T01:23:38.107Z,84.75
2023-04-05T01:24:38.108Z,84.75
2023-04-05T01:25:38.082Z,85.80
2023-04-05T01:26:38.066Z,86.07
2023-04-05T01:27:38.050Z,86.00
2023-04-05T01:28:38.050Z,85.97
2023-04-05T01:29:38.046Z,85.90
2023-04-05T01:30:38.175Z,85.55
2023-04-05T01:31:38.191Z,85.75
2023-04-05T01:32:38.087Z,86.18
2023-04-05T01:33:38.009Z,85.38
2023-04-05T01:34:38.008Z,84.64
2023-04-05T01:35:38.029Z,84.44
2023-04-05T01:36:37.948Z,82.72
2023-04-05T01:37:37.948Z,83.18
2023-04-05T01:38:37.964Z,83.35
2023-04-05T01:39:37.919Z,82.93
2023-04-05T01:40:37.960Z,84.08
2023-04-05T01:41:37.919Z,84.33
2023-04-05T01:42:37.888Z,84.61
2023-04-05T01:43:37.874Z,85.27
2023-04-05T01:44:37.880Z,84.29
2023-04-05T01:45:37.868Z,84.50
2023-04-05T01:46:37.865Z,85.24
2023-04-05T01:47:37.931Z,85.02
2023-04-05T01:48:37.846Z,85.13
2023-04-05T01:49:37.808Z,84.92
2023-04-05T01:50:37.813Z,85.02
2023-04-05T01:51:37.799Z,84.92
2023-04-05T01:52:37.783Z,85.02
2023-04-05T01:53:37.784Z,84.61
2023-04-05T01:54:37.766Z,84.92
2023-04-05T01:55:37.764Z,84.19
2023-04-05T01:56:37.750Z,84.81
2023-04-05T01:57:37.725Z,84.61
2023-04-05T01:58:37.736Z,85.24
2023-04-05T01:59:37.717Z,85.13
2023-04-05T02:00:37.757Z,85.75
2023-04-05T02:01:37.689Z,86.18
2023-04-05T02:02:37.824Z,85.86
2023-04-05T02:03:37.765Z,85.75
2023-04-05T02:04:37.652Z,85.97
2023-04-05T02:05:37.646Z,85.86
2023-04-05T02:06:37.613Z,86.28
2023-04-05T02:07:37.627Z,85.34
2023-04-05T02:08:37.597Z,85.24
2023-04-05T02:09:37.586Z,85.24
2023-04-05T02:10:37.612Z,85.13
2023-04-05T02:11:37.564Z,85.13
2023-04-05T02:12:37.572Z,85.02
2023-04-05T02:13:37.539Z,84.92
2023-04-05T02:14:37.524Z,85.02
2023-04-05T02:15:37.541Z,84.71
2023-04-05T02:16:37.520Z,85.02
2023-04-05T02:17:37.509Z,84.50
2023-04-05T02:18:37.483Z,84.92
2023-04-05T02:19:37.472Z,85.24
2023-04-05T02:20:37.536Z,85.34
2023-04-05T02:21:37.455Z,85.75
2023-04-05T02:22:37.448Z,85.44
2023-04-05T02:23:37.449Z,86.18
2023-04-05T02:24:37.416Z,85.97
2023-04-05T02:25:37.428Z,85.97
2023-04-05T02:26:37.417Z,85.86
2023-04-05T02:27:37.405Z,85.86
2023-04-05T02:28:37.380Z,85.75
2023-04-05T02:29:37.363Z,85.24
2023-04-05T02:30:37.365Z,85.02
2023-04-05T02:31:37.406Z,84.50
2023-04-05T02:32:37.360Z,84.29
2023-04-05T02:33:37.314Z,84.50
2023-04-05T02:34:37.309Z,84.44
2023-04-05T02:35:37.330Z,84.44
2023-04-05T02:36:37.345Z,84.61
2023-04-05T02:37:37.290Z,83.70
2023-04-05T02:38:37.261Z,83.81
2023-04-05T02:39:37.256Z,84.12
2023-04-05T02:40:37.243Z,83.28
2023-04-05T02:41:37.243Z,82.86
2023-04-05T02:42:37.246Z,83.07
2023-04-05T02:43:37.210Z,82.93
2023-04-05T02:44:37.189Z,83.14
2023-04-05T02:45:37.200Z,82.97
2023-04-05T02:46:37.197Z,83.25
2023-04-05T02:47:37.192Z,82.82
2023-04-05T02:48:37.142Z,82.55
2023-04-05T02:49:37.132Z,83.14
2023-04-05T02:50:37.141Z,83.98
2023-04-05T02:51:37.109Z,83.56
2023-04-05T02:52:37.110Z,82.72
2023-04-05T02:53:37.087Z,82.72
2023-04-05T02:54:37.070Z,81.88
2023-04-05T02:55:37.183Z,81.99
2023-04-05T02:56:37.056Z,82.03
2023-04-05T02:57:37.064Z,82.23
2023-04-05T02:58:37.174Z,82.40
2023-04-05T02:59:37.018Z,82.97
2023-04-05T03:00:37.058Z,83.14
2023-04-05T03:01:37.116Z,83.39
2023-04-05T03:02:39.998Z,84.19
2023-04-05T03:03:37.008Z,84.50
2023-04-05T03:04:36.975Z,85.13
2023-04-05T03:05:36.974Z,85.02
2023-04-05T03:06:36.938Z,84.50
2023-04-05T03:07:36.934Z,85.13
2023-04-05T03:08:36.999Z,85.34
2023-04-05T03:09:36.911Z,86.07
2023-04-05T03:10:36.916Z,85.13
2023-04-05T03:11:36.884Z,85.13
2023-04-05T03:12:36.882Z,84.19
2023-04-05T03:13:36.904Z,84.08
2023-04-05T03:14:36.873Z,84.08
2023-04-05T03:15:36.858Z,84.29
2023-04-05T03:16:39.418Z,85.02
2023-04-05T03:17:36.847Z,84.71
2023-04-05T03:18:36.842Z,84.50
2023-04-05T03:19:36.809Z,85.13
2023-04-05T03:20:36.781Z,85.34
2023-04-05T03:21:36.778Z,85.55
2023-04-05T03:22:36.771Z,86.07
2023-04-05T03:23:36.786Z,85.75
2023-04-05T03:24:36.739Z,85.97
2023-04-05T03:25:36.731Z,85.75
2023-04-05T03:26:36.714Z,85.75
2023-04-05T03:27:36.728Z,85.55
2023-04-05T03:28:36.709Z,86.07
2023-04-05T03:29:36.685Z,85.86
2023-04-05T03:30:36.696Z,86.38
2023-04-05T03:31:36.702Z,86.38
2023-04-05T03:32:36.716Z,85.55
2023-04-05T03:33:36.642Z,84.71
2023-04-05T03:34:36.661Z,84.08
2023-04-05T03:35:36.748Z,83.28
2023-04-05T03:36:36.623Z,82.97
2023-04-05T03:37:36.603Z,83.77
2023-04-05T03:38:36.585Z,83.66
2023-04-05T03:39:36.625Z,83.14
2023-04-05T03:40:36.568Z,82.76
2023-04-05T03:41:36.547Z,82.93
2023-04-05T03:42:36.587Z,82.65
2023-04-05T03:43:36.529Z,83.03
2023-04-05T03:44:36.526Z,82.93
2023-04-05T03:45:36.506Z,83.25
2023-04-05T03:46:36.591Z,84.19
2023-04-05T03:47:36.502Z,84.12
2023-04-05T03:48:36.498Z,84.71
2023-04-05T03:49:36.456Z,84.92
2023-04-05T03:50:36.447Z,84.71
2023-04-05T03:51:36.440Z,84.81
2023-04-05T03:52:36.438Z,85.24
2023-04-05T03:53:36.440Z,85.75
2023-04-05T03:54:36.404Z,85.97
2023-04-05T03:55:36.398Z,85.86
2023-04-05T03:56:36.391Z,85.86
2023-04-05T03:57:36.368Z,86.18
2023-04-05T03:58:36.400Z,85.75
2023-04-05T03:59:36.347Z,85.97
2023-04-05T04:00:36.350Z,86.18
2023-04-05T04:01:36.388Z,85.97
2023-04-05T04:02:36.341Z,86.07
2023-04-05T04:03:36.635Z,85.55
2023-04-05T04:04:36.307Z,85.97
2023-04-05T04:05:36.364Z,86.18
2023-04-05T04:06:36.511Z,85.24
2023-04-05T04:07:36.276Z,84.39
2023-04-05T04:08:36.241Z,84.50
2023-04-05T04:09:36.242Z,84.39
2023-04-05T04:10:36.226Z,84.39
2023-04-05T04:11:36.228Z,85.02
2023-04-05T04:12:36.210Z,84.71
2023-04-05T04:13:44.354Z,85.13
2023-04-05T04:14:43.812Z,84.61
2023-04-05T04:15:36.191Z,85.86
2023-04-05T04:16:36.204Z,85.97
2023-04-05T04:17:36.207Z,85.75
2023-04-05T04:18:36.154Z,86.18
2023-04-05T04:19:36.204Z,85.97
2023-04-05T04:20:36.103Z,85.86
2023-04-05T04:21:36.099Z,86.49
2023-04-05T04:22:36.097Z,85.44
2023-04-05T04:23:36.098Z,85.13
2023-04-05T04:24:36.069Z,84.61
2023-04-05T04:25:36.070Z,85.02
2023-04-05T04:26:36.055Z,84.39
2023-04-05T04:27:36.049Z,83.98
2023-04-05T04:28:36.033Z,83.14
2023-04-05T04:29:36.001Z,82.93
2023-04-05T04:30:37.560Z,82.20
2023-04-05T04:31:36.016Z,82.40
2023-04-05T04:32:35.989Z,82.51
2023-04-05T04:33:36.005Z,82.09
2023-04-05T04:34:35.974Z,82.72
2023-04-05T04:35:35.989Z,82.30
2023-04-05T04:36:35.933Z,82.09
2023-04-05T04:37:35.911Z,82.09
2023-04-05T04:38:35.906Z,82.82
2023-04-05T04:39:38.040Z,83.21
2023-04-05T04:40:35.881Z,83.00
2023-04-05T04:41:35.944Z,82.93
2023-04-05T04:42:35.883Z,83.31
2023-04-05T04:43:35.848Z,83.10
2023-04-05T04:44:35.844Z,82.37
2023-04-05T04:45:35.833Z,82.06
2023-04-05T04:46:35.828Z,81.95
2023-04-05T04:47:35.847Z,82.68
2023-04-05T04:48:35.793Z,83.14
2023-04-05T04:49:35.780Z,82.89
2023-04-05T04:50:35.786Z,83.00
2023-04-05T04:51:35.778Z,83.31
2023-04-05T04:52:35.742Z,83.21
2023-04-05T04:53:35.744Z,83.31
2023-04-05T04:54:35.719Z,83.31
2023-04-05T04:55:35.710Z,82.37
2023-04-05T04:56:35.718Z,83.00
2023-04-05T04:57:35.691Z,82.89
2023-04-05T04:58:35.678Z,81.95
2023-04-05T04:59:35.697Z,81.85
2023-04-05T05:00:35.744Z,80.80
2023-04-05T05:01:35.678Z,79.86
2023-04-05T05:02:35.660Z,79.86
2023-04-05T05:03:35.626Z,80.21
2023-04-05T05:04:35.638Z,80.59
2023-04-05T05:05:35.671Z,80.07
2023-04-05T05:06:35.690Z,80.17
2023-04-05T05:07:35.601Z,80.17
2023-04-05T05:08:35.578Z,80.17
2023-04-05T05:09:35.556Z,79.23
2023-04-05T05:10:35.630Z,79.54
2023-04-05T05:11:35.628Z,79.33
2023-04-05T05:12:35.566Z,79.33
2023-04-05T05:13:35.514Z,79.33
2023-04-05T05:14:35.539Z,79.23
2023-04-05T05:15:35.500Z,79.33
2023-04-05T05:16:35.552Z,79.23
2023-04-05T05:17:35.555Z,79.23
2023-04-05T05:18:35.458Z,78.08
2023-04-05T05:19:35.443Z,78.08
2023-04-05T05:20:35.433Z,78.15
2023-04-05T05:21:35.424Z,77.97
2023-04-05T05:22:35.454Z,78.08
2023-04-05T05:23:35.410Z,79.54
2023-04-05T05:24:35.396Z,79.13
2023-04-05T05:25:35.399Z,77.55
2023-04-05T05:26:35.372Z,77.66
2023-04-05T05:27:35.378Z,77.76
2023-04-05T05:28:35.345Z,79.13
2023-04-05T05:29:35.345Z,79.54
2023-04-05T05:30:35.356Z,79.75
2023-04-05T05:31:35.386Z,79.33
2023-04-05T05:32:35.357Z,77.55
2023-04-05T05:33:35.292Z,77.76
2023-04-05T05:34:35.280Z,78.18
2023-04-05T05:35:35.294Z,79.44
2023-04-05T05:36:35.256Z,79.33
2023-04-05T05:37:35.263Z,79.33
2023-04-05T05:38:35.278Z,79.58
2023-04-05T05:39:35.218Z,79.58
2023-04-05T05:40:35.210Z,79.37
2023-04-05T05:41:35.211Z,79.37
2023-04-05T05:42:35.203Z,79.68
2023-04-05T05:43:35.177Z,80.31
2023-04-05T05:44:35.190Z,80.69
2023-04-05T05:45:35.147Z,80.90
2023-04-05T05:46:35.203Z,81.53
2023-04-05T05:47:35.151Z,81.63
2023-04-05T05:48:35.140Z,81.74
2023-04-05T05:49:35.121Z,82.26
2023-04-05T05:50:35.101Z,82.26
2023-04-05T05:51:35.133Z,82.58
2023-04-05T05:52:35.072Z,82.47
2023-04-05T05:53:35.063Z,82.86
2023-04-05T05:54:35.070Z,83.06
2023-04-05T05:55:35.066Z,82.96
2023-04-05T05:56:35.036Z,83.10
2023-04-05T05:57:35.061Z,82.65
2023-04-05T05:58:35.011Z,82.54
2023-04-05T05:59:35.081Z,83.06
2023-04-05T06:00:35.029Z,82.96
2023-04-05T06:01:34.971Z,82.75
2023-04-05T06:02:35.056Z,82.65
2023-04-05T06:03:35.076Z,82.02
2023-04-05T06:04:35.033Z,82.43
2023-04-05T06:05:34.931Z,82.12
2023-04-05T06:06:37.302Z,82.43
2023-04-05T06:07:34.907Z,81.92
2023-04-05T06:08:34.920Z,81.87
2023-04-05T06:09:34.911Z,82.29
2023-04-05T06:10:34.912Z,81.92
2023-04-05T06:11:37.123Z,81.87
2023-04-05T06:12:35.866Z,81.46
2023-04-05T06:13:34.836Z,81.67
2023-04-05T06:14:34.851Z,81.77
2023-04-05T06:15:34.835Z,81.67
2023-04-05T06:16:35.858Z,81.98
2023-04-05T06:17:34.822Z,81.84
2023-04-05T06:18:34.780Z,81.32
2023-04-05T06:19:34.777Z,81.84
2023-04-05T06:20:34.780Z,79.22
2023-04-05T06:21:34.756Z,79.22
2023-04-05T06:22:34.739Z,79.96
2023-04-05T06:23:34.732Z,80.52
2023-04-05T06:24:34.811Z,80.90
2023-04-05T06:25:34.704Z,81.32
2023-04-05T06:26:34.735Z,80.16
2023-04-05T06:27:34.791Z,80.58
2023-04-05T06:28:34.671Z,80.79
2023-04-05T06:29:34.659Z,80.76
2023-04-05T06:30:34.676Z,79.61
2023-04-05T06:31:34.663Z,79.33
2023-04-05T06:32:34.677Z,79.33
2023-04-05T06:33:34.640Z,79.33
2023-04-05T06:34:34.631Z,78.81
2023-04-05T06:35:34.607Z,79.33
2023-04-05T06:36:34.675Z,79.75
2023-04-05T06:37:34.573Z,80.16
2023-04-05T06:38:34.584Z,80.27
2023-04-05T06:39:34.550Z,80.86
2023-04-05T06:40:34.532Z,80.24
2023-04-05T06:41:34.521Z,79.19
2023-04-05T06:42:34.544Z,77.31
2023-04-05T06:43:34.514Z,77.51
2023-04-05T06:44:34.510Z,77.51
2023-04-05T06:45:34.505Z,77.48
2023-04-05T06:46:34.465Z,77.48
2023-04-05T06:47:34.462Z,76.23
2023-04-05T06:48:34.438Z,76.12
2023-04-05T06:49:34.465Z,76.12
2023-04-05T06:50:34.414Z,75.92
2023-04-05T06:51:35.065Z,76.44
2023-04-05T06:52:34.403Z,77.55
2023-04-05T06:53:34.412Z,76.30
2023-04-05T06:54:34.379Z,75.67
2023-04-05T06:55:34.360Z,75.95
2023-04-05T06:56:34.359Z,75.53
2023-04-05T06:57:34.343Z,74.80
2023-04-05T06:58:34.366Z,74.38
2023-04-05T06:59:34.371Z,73.83
2023-04-05T07:00:34.333Z,73.10
2023-04-05T07:01:34.345Z,72.41
2023-04-05T07:02:36.122Z,70.84
2023-04-05T07:03:34.278Z,70.60
2023-04-05T07:04:34.300Z,70.39
2023-04-05T07:05:34.246Z,71.22
2023-04-05T07:06:34.248Z,72.55
2023-04-05T07:07:34.240Z,74.60
2023-04-05T07:08:34.214Z,71.12
2023-04-05T07:09:34.223Z,70.54
2023-04-05T07:10:34.224Z,68.19
2023-04-05T07:11:34.196Z,71.97
2023-04-05T07:12:34.200Z,72.63
2023-04-05T07:13:34.154Z,70.70
2023-04-05T07:14:34.271Z,66.38
2023-04-05T07:15:34.143Z,67.52
2023-04-05T07:16:34.181Z,68.29
2023-04-05T07:17:34.310Z,66.47
2023-04-05T07:18:34.129Z,66.33
2023-04-05T07:19:34.082Z,66.61
2023-04-05T07:20:34.081Z,59.28
2023-04-05T07:21:34.079Z,60.18
2023-04-05T07:22:34.074Z,60.16
2023-04-05T07:23:34.044Z,59.36
2023-04-05T07:24:34.111Z,61.29
2023-04-05T07:25:34.023Z,62.84
2023-04-05T07:26:34.049Z,60.13
2023-04-05T07:27:34.022Z,60.00
2023-04-05T07:28:33.985Z,58.37
2023-04-05T07:29:33.971Z,60.72
2023-04-05T07:30:33.981Z,58.25
2023-04-05T07:31:33.950Z,56.59
2023-04-05T07:32:34.012Z,56.49
2023-04-05T07:33:33.933Z,54.27
2023-04-05T07:34:33.919Z,56.44
2023-04-05T07:35:33.950Z,55.15
2023-04-05T07:36:35.396Z,58.38
2023-04-05T07:37:33.904Z,57.17
2023-04-05T07:38:33.898Z,59.55
2023-04-05T07:39:33.868Z,58.79
2023-04-05T07:40:33.849Z,58.82
2023-04-05T07:41:33.843Z,58.51
2023-04-05T07:42:33.827Z,57.89
2023-04-05T07:43:33.841Z,57.99
2023-04-05T07:44:33.804Z,56.98
2023-04-05T07:45:33.829Z,57.81
2023-04-05T07:46:33.845Z,60.27
2023-04-05T07:47:33.810Z,58.61
2023-04-05T07:48:33.790Z,57.17
2023-04-05T07:49:33.765Z,60.37
2023-04-05T07:50:33.754Z,56.93
2023-04-05T07:51:33.725Z,58.07
2023-04-05T07:52:33.756Z,59.44
2023-04-05T07:53:34.317Z,59.10
2023-04-05T07:54:33.691Z,64.24
2023-04-05T07:55:33.699Z,60.28
2023-04-05T07:56:33.666Z,57.50
2023-04-05T07:57:33.680Z,57.09
2023-04-05T07:58:33.662Z,56.98
2023-04-05T07:59:33.701Z,56.26
2023-04-05T08:00:33.640Z,58.22
2023-04-05T08:01:33.647Z,59.36
2023-04-05T08:02:33.673Z,55.51
2023-04-05T08:03:33.625Z,58.50
2023-04-05T08:04:33.716Z,58.40
2023-04-05T08:05:33.586Z,57.57
2023-04-05T08:06:33.575Z,56.49
2023-04-05T08:07:33.637Z,57.04
2023-04-05T08:08:33.580Z,58.28
2023-04-05T08:09:33.660Z,58.07
2023-04-05T08:10:33.514Z,54.89
2023-04-05T08:11:33.501Z,54.66
2023-04-05T08:12:42.181Z,55.93
2023-04-05T08:13:33.579Z,55.62
2023-04-05T08:14:33.584Z,55.54
2023-04-05T08:15:33.559Z,55.22
2023-04-05T08:16:40.698Z,54.76
2023-04-05T08:17:33.486Z,54.55
2023-04-05T08:18:33.523Z,53.75
2023-04-05T08:19:33.414Z,53.88
2023-04-05T08:20:33.424Z,55.95
2023-04-05T08:21:33.382Z,54.81
2023-04-05T08:22:33.448Z,55.43
2023-04-05T08:23:33.424Z,53.67
2023-04-05T08:24:33.531Z,53.90
2023-04-05T08:25:33.366Z,55.07
2023-04-05T08:26:33.343Z,55.04
2023-04-05T08:27:33.322Z,55.90
2023-04-05T08:28:33.295Z,55.27
2023-04-05T08:29:33.285Z,54.63
2023-04-05T08:30:33.313Z,54.83
2023-04-05T08:31:33.316Z,54.55
2023-04-05T08:32:33.304Z,55.38
2023-04-05T08:33:33.237Z,57.24
2023-04-05T08:34:33.251Z,57.45
2023-04-05T08:35:33.294Z,56.60
2023-04-05T08:36:33.208Z,55.17
2023-04-05T08:37:33.194Z,56.81
2023-04-05T08:38:33.187Z,55.90
2023-04-05T08:39:33.167Z,55.58
2023-04-05T08:40:33.180Z,55.07
2023-04-05T08:41:33.152Z,56.21
2023-04-05T08:42:33.157Z,56.52
2023-04-05T08:43:33.123Z,55.69
2023-04-05T08:44:33.111Z,55.48
2023-04-05T08:45:33.117Z,55.07
2023-04-05T08:46:33.107Z,55.72
2023-04-05T08:47:33.147Z,57.28
2023-04-05T08:48:33.646Z,58.83
2023-04-05T08:49:33.076Z,57.28
2023-04-05T08:50:33.069Z,55.82
2023-04-05T08:51:33.060Z,57.28
2023-04-05T08:52:33.027Z,58.31
2023-04-05T08:53:33.032Z,58.31
2023-04-05T08:54:33.014Z,59.35
2023-04-05T08:55:32.990Z,58.31
2023-04-05T08:56:32.983Z,59.22
2023-04-05T08:57:32.966Z,58.70
2023-04-05T08:58:32.959Z,58.80
2023-04-05T08:59:33.062Z,59.84
2023-04-05T09:00:32.963Z,58.70
2023-04-05T09:01:32.978Z,58.80
2023-04-05T09:02:33.043Z,58.80
2023-04-05T09:03:33.113Z,57.53
2023-04-05T09:04:32.938Z,57.74
2023-04-05T09:05:32.877Z,58.59
2023-04-05T09:06:32.896Z,58.80
2023-04-05T09:07:32.853Z,60.60
2023-04-05T09:08:32.882Z,60.60
2023-04-05T09:09:32.843Z,60.88
2023-04-05T09:10:32.823Z,60.15
2023-04-05T09:11:32.832Z,60.57
2023-04-05T09:12:32.831Z,59.94
2023-04-05T09:13:32.800Z,61.08
2023-04-05T09:14:32.779Z,59.84
2023-04-05T09:15:32.773Z,59.63
2023-04-05T09:16:32.826Z,58.05
2023-04-05T09:17:32.808Z,57.04
2023-04-05T09:18:32.811Z,58.70
2023-04-05T09:19:32.732Z,58.91
2023-04-05T09:20:32.710Z,57.66
2023-04-05T09:21:32.721Z,59.11
2023-04-05T09:22:32.705Z,58.67
2023-04-05T09:23:32.680Z,59.09
2023-04-05T09:24:32.679Z,57.43
2023-04-05T09:25:32.659Z,57.81
2023-04-05T09:26:32.663Z,57.53
2023-04-05T09:27:32.638Z,57.09
2023-04-05T09:28:32.621Z,57.30
2023-04-05T09:29:32.629Z,57.09
2023-04-05T09:30:32.857Z,58.33
2023-04-05T09:31:32.647Z,58.54
2023-04-05T09:32:32.671Z,56.96
2023-04-05T09:33:32.558Z,56.75
2023-04-05T09:34:35.155Z,57.37
2023-04-05T09:35:32.561Z,56.03
2023-04-05T09:36:32.559Z,54.27
2023-04-05T09:37:32.522Z,56.03
2023-04-05T09:38:32.543Z,58.20
2023-04-05T09:39:32.532Z,56.85
2023-04-05T09:40:32.485Z,57.37
2023-04-05T09:41:32.478Z,56.54
2023-04-05T09:42:32.478Z,57.27
2023-04-05T09:43:32.457Z,57.68
2023-04-05T09:44:32.454Z,56.00
2023-04-05T09:45:32.426Z,57.37
2023-04-05T09:46:32.488Z,55.82
2023-04-05T09:47:32.518Z,57.48
2023-04-05T09:48:32.398Z,58.12
2023-04-05T09:49:32.395Z,57.50
2023-04-05T09:50:32.370Z,58.83
2023-04-05T09:51:32.358Z,58.51
2023-04-05T09:52:32.419Z,58.41
2023-04-05T09:53:32.372Z,58.62
2023-04-05T09:54:32.340Z,57.27
2023-04-05T09:55:32.331Z,56.75
2023-04-05T09:56:32.307Z,55.93
2023-04-05T09:57:32.332Z,57.06
2023-04-05T09:58:32.289Z,58.72
2023-04-05T09:59:32.294Z,59.31
2023-04-05T10:00:32.253Z,57.24
2023-04-05T10:01:32.293Z,58.25
2023-04-05T10:02:32.302Z,57.35
2023-04-05T10:03:32.331Z,57.22
2023-04-05T10:04:32.215Z,57.12
2023-04-05T10:05:32.204Z,56.49
2023-04-05T10:06:32.200Z,56.49
2023-04-05T10:07:32.204Z,57.22
2023-04-05T10:08:32.155Z,56.39
2023-04-05T10:09:33.578Z,57.22
2023-04-05T10:10:32.152Z,57.94
2023-04-05T10:11:32.133Z,55.46
2023-04-05T10:12:32.118Z,57.42
2023-04-05T10:13:32.093Z,58.98
2023-04-05T10:14:32.099Z,57.22
2023-04-05T10:15:32.084Z,57.22
2023-04-05T10:16:32.112Z,57.71
2023-04-05T10:17:32.084Z,57.12
2023-04-05T10:18:32.049Z,57.22
2023-04-05T10:19:32.029Z,57.22
2023-04-05T10:20:32.011Z,57.53
2023-04-05T10:21:32.047Z,57.22
2023-04-05T10:22:32.006Z,55.66
2023-04-05T10:23:31.979Z,55.07
2023-04-05T10:24:31.988Z,56.93
2023-04-05T10:25:31.958Z,59.00
2023-04-05T10:26:31.978Z,55.30
2023-04-05T10:27:31.933Z,57.06
2023-04-05T10:28:31.920Z,56.34
2023-04-05T10:29:31.934Z,56.24
2023-04-05T10:30:31.905Z,56.75
2023-04-05T10:31:37.613Z,58.07
2023-04-05T10:32:33.026Z,56.73
2023-04-05T10:33:31.897Z,57.84
2023-04-05T10:34:31.850Z,58.25
2023-04-05T10:35:31.870Z,57.09
2023-04-05T10:36:31.948Z,54.91
2023-04-05T10:37:31.817Z,57.17
2023-04-05T10:38:31.808Z,55.51
2023-04-05T10:39:31.798Z,55.62
2023-04-05T10:40:31.790Z,58.09
2023-04-05T10:41:31.853Z,56.10
2023-04-05T10:42:31.793Z,55.18
2023-04-05T10:43:31.806Z,57.34
2023-04-05T10:44:31.803Z,57.53
2023-04-05T10:45:33.201Z,55.46
2023-04-05T10:46:31.827Z,54.25
2023-04-05T10:47:31.806Z,55.18
2023-04-05T10:48:31.690Z,55.59
2023-04-05T10:49:31.686Z,55.69
2023-04-05T10:50:31.668Z,53.42
2023-04-05T10:51:31.715Z,54.68
2023-04-05T10:52:31.669Z,54.38
2023-04-05T10:53:31.658Z,55.93
2023-04-05T10:54:31.617Z,55.62
2023-04-05T10:55:31.703Z,57.24
2023-04-05T10:56:31.618Z,58.38
2023-04-05T10:57:31.586Z,58.07
2023-04-05T10:58:31.612Z,57.58
2023-04-05T10:59:31.703Z,57.14
2023-04-05T11:00:31.571Z,55.80
2023-04-05T11:01:31.693Z,54.58
2023-04-05T11:02:31.589Z,56.13
2023-04-05T11:03:31.653Z,57.48
2023-04-05T11:04:31.563Z,55.93
2023-04-05T11:05:31.515Z,54.82
2023-04-05T11:06:31.489Z,55.43
2023-04-05T11:07:31.569Z,56.37
2023-04-05T11:08:31.481Z,58.54
2023-04-05T11:09:31.457Z,58.74
2023-04-05T11:10:31.463Z,54.30
2023-04-05T11:11:33.805Z,55.64
2023-04-05T11:12:31.420Z,56.49
2023-04-05T11:13:31.413Z,56.98
2023-04-05T11:14:31.427Z,54.19
2023-04-05T11:15:31.404Z,54.19
2023-04-05T11:16:31.392Z,55.66
2023-04-05T11:17:31.410Z,57.40
2023-04-05T11:18:31.349Z,57.71
2023-04-05T11:19:31.338Z,57.19
2023-04-05T11:20:31.353Z,55.12
2023-04-05T11:21:31.314Z,54.61
2023-04-05T11:22:31.311Z,53.67
2023-04-05T11:23:31.306Z,55.95
2023-04-05T11:24:33.129Z,56.85
2023-04-05T11:25:31.295Z,57.37
2023-04-05T11:26:31.315Z,55.51
2023-04-05T11:27:31.251Z,55.72
2023-04-05T11:28:31.237Z,57.17
2023-04-05T11:29:31.237Z,57.65
2023-04-05T11:30:31.267Z,58.17
2023-04-05T11:31:31.243Z,58.56
2023-04-05T11:32:31.199Z,59.39
2023-04-05T11:33:31.178Z,59.80
2023-04-05T11:34:31.193Z,58.87
2023-04-05T11:35:31.186Z,57.42
2023-04-05T11:36:31.219Z,57.11
2023-04-05T11:37:31.136Z,57.01
2023-04-05T11:38:31.132Z,56.90
2023-04-05T11:39:31.112Z,58.25
2023-04-05T11:40:31.117Z,58.56
2023-04-05T11:41:31.102Z,58.74
2023-04-05T11:42:31.079Z,58.50
2023-04-05T11:43:31.066Z,58.09
2023-04-05T11:44:31.055Z,57.45
2023-04-05T11:45:32.266Z,55.07
2023-04-05T11:46:31.121Z,56.73
2023-04-05T11:47:31.074Z,60.93
2023-04-05T11:48:31.011Z,60.89
2023-04-05T11:49:31.017Z,53.48
2023-04-05T11:50:30.999Z,54.82
2023-04-05T11:51:30.980Z,57.68
2023-04-05T11:52:30.962Z,57.03
2023-04-05T11:53:30.963Z,55.18
2023-04-05T11:54:30.982Z,55.36
2023-04-05T11:55:30.935Z,54.85
2023-04-05T11:56:30.917Z,53.09
2023-04-05T11:57:30.930Z,53.30
2023-04-05T11:58:30.910Z,53.33
2023-04-05T11:59:30.929Z,52.73
2023-04-05T12:00:30.873Z,53.38
2023-04-05T12:01:30.862Z,53.48
2023-04-05T12:02:30.944Z,51.44
2023-04-05T12:03:31.012Z,52.39
2023-04-05T12:04:30.869Z,52.31
2023-04-05T12:05:30.821Z,53.03
2023-04-05T12:06:30.801Z,53.27
2023-04-05T12:07:30.795Z,53.99
2023-04-05T12:08:30.775Z,54.94
2023-04-05T12:09:30.787Z,57.32
2023-04-05T12:10:30.751Z,57.01
2023-04-05T12:11:30.756Z,57.01
2023-04-05T12:12:30.733Z,56.60
2023-04-05T12:13:30.726Z,55.69
2023-04-05T12:14:30.727Z,55.62
2023-04-05T12:15:30.699Z,57.06
2023-04-05T12:16:30.811Z,56.77
2023-04-05T12:17:30.717Z,57.12
2023-04-05T12:18:30.700Z,58.46
2023-04-05T12:19:38.286Z,58.04
2023-04-05T12:20:30.652Z,58.15
2023-04-05T12:21:30.652Z,58.25
2023-04-05T12:22:37.729Z,58.25
2023-04-05T12:23:39.037Z,57.94
2023-04-05T12:24:37.705Z,58.25
2023-04-05T12:25:30.669Z,58.69
2023-04-05T12:26:37.664Z,58.38
2023-04-05T12:27:30.566Z,58.80
2023-04-05T12:28:30.558Z,57.89
2023-04-05T12:29:30.557Z,59.00
2023-04-05T12:30:30.548Z,57.48
2023-04-05T12:31:30.535Z,58.10
2023-04-05T12:32:30.614Z,58.20
2023-04-05T12:33:30.512Z,58.72
2023-04-05T12:34:30.521Z,59.03
2023-04-05T12:35:30.466Z,59.66
2023-04-05T12:36:30.490Z,59.21
2023-04-05T12:37:30.462Z,59.86
2023-04-05T12:38:30.434Z,59.96
2023-04-05T12:39:30.445Z,58.62
2023-04-05T12:40:30.437Z,59.34
2023-04-05T12:41:30.415Z,59.96
2023-04-05T12:42:30.412Z,59.66
2023-04-05T12:43:30.393Z,59.06
2023-04-05T12:44:31.346Z,60.20
2023-04-05T12:45:30.383Z,59.99
2023-04-05T12:46:30.550Z,60.20
2023-04-05T12:47:30.352Z,58.93
2023-04-05T12:48:30.353Z,59.34
2023-04-05T12:49:30.314Z,59.24
2023-04-05T12:50:30.345Z,59.16
2023-04-05T12:51:30.294Z,59.14
2023-04-05T12:52:30.272Z,58.62